Time;durP1;ratioP1;P1;durP2;ratioP2;P2;SDS_P1;SDS_P2;PMS_P1;PMS_P2;Temp;Humidity;BMP_temperature;BMP_pressure;BME280_temperature;BME280_humidity;BME280_pressure;Samples;Min_cycle;Max_cycle;Signal;HPM_P1;HPM_P2
2022/04/30 00:00:21;;;;;;;;;;;16.30;41.70;;;;;;2631729;52;20090;-75
2022/04/30 00:02:47;;;;;;;;;;;16.30;41.80;;;;;;2377471;54;20082;-73
2022/04/30 00:05:14;;;;;;;;;;;16.20;41.80;;;;;;2427942;52;20362;-75
2022/04/30 00:07:41;;;;;;;;;;;16.30;41.90;;;;;;2377584;54;20121;-73
2022/04/30 00:10:16;;;;;;;;;;;16.20;41.90;;;;;;2376934;54;20070;-73
2022/04/30 00:12:42;;;;;;;;;;;16.20;42.00;;;;;;2390346;52;20085;-73
2022/04/30 00:15:10;;;;;;;;;;;16.20;42.00;;;;;;2377384;54;20061;-77
2022/04/30 00:17:36;;;;;;;;;;;16.20;42.10;;;;;;2539685;52;20130;-73
2022/04/30 00:20:03;;;;;;;;;;;16.20;42.20;;;;;;2376015;53;20078;-73
2022/04/30 00:22:31;;;;;;;;;;;16.20;42.20;;;;;;2377833;53;20121;-73
2022/04/30 00:24:57;;;;;;;;;;;16.20;42.30;;;;;;2486820;52;20129;-73
2022/04/30 00:27:23;;;;;;;;;;;16.20;42.30;;;;;;2377905;54;20054;-73
2022/04/30 00:29:50;;;;;;;;;;;16.20;42.20;;;;;;2377490;53;20114;-73
2022/04/30 00:32:17;;;;;;;;;;;16.20;42.20;;;;;;2377378;54;20073;-73
2022/04/30 00:34:44;;;;;;;;;;;16.30;42.30;;;;;;2377516;54;20057;-73
2022/04/30 00:37:10;;;;;;;;;;;16.30;42.30;;;;;;2377705;53;20097;-76
2022/04/30 00:39:36;;;;;;;;;;;16.30;42.40;;;;;;2377515;53;20122;-74
2022/04/30 00:42:03;;;;;;;;;;;16.30;42.40;;;;;;2631283;52;20166;-75
2022/04/30 00:44:29;;;;;;;;;;;16.30;42.50;;;;;;2415844;52;20133;-73
2022/04/30 00:46:56;;;;;;;;;;;16.30;42.50;;;;;;2426817;52;20105;-74
2022/04/30 00:49:23;;;;;;;;;;;16.30;42.40;;;;;;2381247;53;20049;-73
2022/04/30 00:51:50;;;;;;;;;;;16.40;42.60;;;;;;2377489;53;20189;-75
2022/04/30 00:54:18;;;;;;;;;;;16.40;42.60;;;;;;2626895;52;20771;-76
2022/04/30 00:56:47;;;;;;;;;;;16.40;42.60;;;;;;2379720;53;20138;-73
2022/04/30 00:59:17;;;;;;;;;;;16.40;42.50;;;;;;2380580;53;20069;-74
2022/04/30 01:01:43;;;;;;;;;;;16.50;42.60;;;;;;2375954;53;20430;-76
2022/04/30 01:04:10;;;;;;;;;;;16.50;42.70;;;;;;2377461;53;20062;-73
2022/04/30 01:06:50;;;;;;;;;;;16.50;42.70;;;;;;2409630;52;20070;-73
2022/04/30 01:09:21;;;;;;;;;;;16.50;42.70;;;;;;2379934;53;20069;-74
2022/04/30 01:11:48;;;;;;;;;;;16.50;42.80;;;;;;2615012;52;20987;-75
2022/04/30 01:14:14;;;;;;;;;;;16.50;42.80;;;;;;2376402;53;20133;-74
2022/04/30 01:16:42;;;;;;;;;;;16.60;42.90;;;;;;2376789;54;20137;-73
2022/04/30 01:19:08;;;;;;;;;;;16.60;42.90;;;;;;2377231;54;20085;-73
2022/04/30 01:21:34;;;;;;;;;;;16.60;42.70;;;;;;2612887;52;20062;-74
2022/04/30 01:24:00;;;;;;;;;;;16.60;42.80;;;;;;2625984;52;20414;-74
2022/04/30 01:26:27;;;;;;;;;;;16.60;42.80;;;;;;2626733;52;20114;-74
2022/04/30 01:28:53;;;;;;;;;;;16.50;42.80;;;;;;2385067;52;20142;-76
2022/04/30 01:39:34;;;;;;;;;;;16.60;42.80;;;;;;2377396;53;20069;-73
2022/04/30 01:42:04;;;;;;;;;;;16.60;42.80;;;;;;2377415;54;20326;-73
2022/04/30 01:44:30;;;;;;;;;;;16.50;42.80;;;;;;2510882;52;20315;-74
2022/04/30 01:46:58;;;;;;;;;;;16.50;42.90;;;;;;2378009;53;20073;-74
2022/04/30 01:49:24;;;;;;;;;;;16.50;42.90;;;;;;2380694;53;20081;-73
2022/04/30 01:51:50;;;;;;;;;;;16.50;43.00;;;;;;2401306;52;20332;-73
2022/04/30 01:54:17;;;;;;;;;;;16.50;43.00;;;;;;2380534;53;20145;-73
2022/04/30 01:56:45;;;;;;;;;;;16.50;43.10;;;;;;2377835;53;20110;-75
2022/04/30 01:59:12;;;;;;;;;;;16.50;43.20;;;;;;2630161;52;20383;-73
2022/04/30 02:01:38;;;;;;;;;;;16.50;43.30;;;;;;2379719;53;20133;-74
2022/04/30 02:04:04;;;;;;;;;;;16.50;43.30;;;;;;2628522;52;20123;-73
2022/04/30 02:06:30;;;;;;;;;;;16.50;43.40;;;;;;2378489;53;20125;-77
2022/04/30 02:08:57;;;;;;;;;;;16.50;43.40;;;;;;2376483;53;20531;-77
2022/04/30 02:11:26;;;;;;;;;;;16.50;43.40;;;;;;2415181;52;20085;-74
2022/04/30 02:13:53;;;;;;;;;;;16.50;43.40;;;;;;2377181;54;20077;-74
2022/04/30 02:16:22;;;;;;;;;;;16.50;43.40;;;;;;2378047;54;20339;-73
2022/04/30 02:18:51;;;;;;;;;;;16.40;43.30;;;;;;2380773;53;20122;-77
2022/04/30 02:21:20;;;;;;;;;;;16.50;43.40;;;;;;2416332;52;20066;-74
2022/04/30 02:23:47;;;;;;;;;;;16.50;43.40;;;;;;2428918;52;20118;-76
2022/04/30 02:26:14;;;;;;;;;;;16.40;43.40;;;;;;2381652;53;20068;-73
2022/04/30 02:28:42;;;;;;;;;;;16.40;43.40;;;;;;2376948;53;20068;-73
2022/04/30 02:31:22;;;;;;;;;;;16.40;43.40;;;;;;2628333;52;20272;-73
2022/04/30 02:33:48;;;;;;;;;;;16.40;43.40;;;;;;2378279;53;20093;-75
2022/04/30 02:36:15;;;;;;;;;;;16.40;43.40;;;;;;2473446;52;20097;-73
2022/04/30 02:38:41;;;;;;;;;;;16.40;43.60;;;;;;2386518;52;20046;-76
2022/04/30 02:41:11;;;;;;;;;;;16.40;43.60;;;;;;2377838;53;20085;-74
2022/04/30 02:43:37;;;;;;;;;;;16.40;43.60;;;;;;2433818;52;20061;-74
2022/04/30 02:46:04;;;;;;;;;;;16.40;43.60;;;;;;2390574;52;20182;-74
2022/04/30 02:48:30;;;;;;;;;;;16.40;43.70;;;;;;2377365;53;20133;-77
2022/04/30 02:51:00;;;;;;;;;;;16.40;43.70;;;;;;2402989;52;20077;-75
2022/04/30 02:53:26;;;;;;;;;;;16.40;43.70;;;;;;2377332;53;20057;-73
2022/04/30 02:55:52;;;;;;;;;;;16.40;43.70;;;;;;2376774;53;20073;-76
2022/04/30 03:01:03;;;;;;;;;;;16.50;43.80;;;;;;2377844;54;20116;-74
2022/04/30 03:03:29;;;;;;;;;;;16.50;44.50;;;;;;2631573;52;20162;-74
2022/04/30 03:05:56;;;;;;;;;;;16.40;43.80;;;;;;2377062;53;20564;-74
2022/04/30 03:08:23;;;;;;;;;;;16.50;44.00;;;;;;2379891;53;20066;-74
2022/04/30 03:10:50;;;;;;;;;;;16.50;44.00;;;;;;2413341;52;20085;-74
2022/04/30 03:13:20;;;;;;;;;;;16.50;44.00;;;;;;2377605;54;20133;-74
2022/04/30 03:15:47;;;;;;;;;;;16.50;44.10;;;;;;2377064;54;20174;-78
2022/04/30 03:28:29;;;;;;;;;;;16.50;44.20;;;;;;2631846;52;20034;-74
2022/04/30 03:30:56;;;;;;;;;;;16.50;44.30;;;;;;2380919;53;20089;-73
2022/04/30 03:33:24;;;;;;;;;;;16.50;44.30;;;;;;2375534;53;20065;-74
2022/04/30 03:35:50;;;;;;;;;;;16.50;44.30;;;;;;2629155;52;20122;-73
2022/04/30 03:38:16;;;;;;;;;;;16.50;44.30;;;;;;2377459;53;20074;-73
2022/04/30 03:40:44;;;;;;;;;;;16.40;44.20;;;;;;2381561;53;20089;-77
2022/04/30 03:43:10;;;;;;;;;;;16.40;44.20;;;;;;2379958;52;20690;-74
2022/04/30 03:45:36;;;;;;;;;;;16.40;44.30;;;;;;2376143;53;20713;-72
2022/04/30 03:48:03;;;;;;;;;;;16.40;44.40;;;;;;2422834;52;20303;-74
2022/04/30 03:50:30;;;;;;;;;;;16.40;44.50;;;;;;2482347;52;20377;-74
2022/04/30 03:52:56;;;;;;;;;;;16.40;44.50;;;;;;2380370;53;20080;-73
2022/04/30 03:55:22;;;;;;;;;;;16.30;44.50;;;;;;2387626;52;20315;-74
2022/04/30 03:57:48;;;;;;;;;;;16.30;44.60;;;;;;2376971;53;20101;-74
2022/04/30 04:00:15;;;;;;;;;;;16.30;44.60;;;;;;2408420;52;20402;-74
2022/04/30 04:02:43;;;;;;;;;;;16.30;44.70;;;;;;2376986;53;20109;-76
2022/04/30 04:05:13;;;;;;;;;;;16.30;44.80;;;;;;2376385;54;20078;-73
2022/04/30 04:07:39;;;;;;;;;;;16.20;44.80;;;;;;2424468;52;20326;-74
2022/04/30 04:10:06;;;;;;;;;;;16.10;44.80;;;;;;2377951;53;20050;-73
2022/04/30 04:12:33;;;;;;;;;;;16.20;44.90;;;;;;2377446;54;20082;-73
2022/04/30 04:17:44;;;;;;;;;;;16.20;45.00;;;;;;2380966;53;20114;-73
2022/04/30 04:20:13;;;;;;;;;;;16.10;45.00;;;;;;2376316;53;20123;-74
2022/04/30 04:22:40;;;;;;;;;;;16.10;45.00;;;;;;2377904;54;20074;-74
2022/04/30 04:27:55;;;;;;;;;;;16.10;45.20;;;;;;2447912;52;20061;-76
2022/04/30 04:30:21;;;;;;;;;;;16.10;45.20;;;;;;2378312;53;20666;-73
2022/04/30 04:32:47;;;;;;;;;;;16.10;45.30;;;;;;2381848;52;20185;-73
2022/04/30 04:35:14;;;;;;;;;;;16.10;45.30;;;;;;2631120;52;20077;-74
2022/04/30 04:37:41;;;;;;;;;;;16.10;45.30;;;;;;2377781;53;20058;-75
2022/04/30 04:40:08;;;;;;;;;;;16.10;45.40;;;;;;2377941;53;20141;-73
2022/04/30 04:42:34;;;;;;;;;;;16.10;45.40;;;;;;2627208;52;20173;-74
2022/04/30 04:45:00;;;;;;;;;;;16.10;45.40;;;;;;2375733;53;20121;-74
2022/04/30 04:47:27;;;;;;;;;;;16.10;45.40;;;;;;2462466;52;20114;-73
2022/04/30 04:49:54;;;;;;;;;;;16.10;45.50;;;;;;2377407;53;20362;-74
2022/04/30 04:52:21;;;;;;;;;;;16.10;45.50;;;;;;2404080;52;20065;-73
2022/04/30 04:54:47;;;;;;;;;;;16.10;45.50;;;;;;2396835;52;20053;-74
2022/04/30 04:57:14;;;;;;;;;;;16.10;45.50;;;;;;2376903;53;20066;-73
2022/04/30 04:59:40;;;;;;;;;;;16.10;45.50;;;;;;2538772;52;20468;-73
2022/04/30 05:02:08;;;;;;;;;;;16.10;45.60;;;;;;2377198;53;20077;-74
2022/04/30 05:04:37;;;;;;;;;;;16.10;45.60;;;;;;2377597;53;20101;-74
2022/04/30 05:07:04;;;;;;;;;;;16.00;45.60;;;;;;2436066;52;20385;-75
2022/04/30 05:09:31;;;;;;;;;;;16.10;45.70;;;;;;2377858;54;20133;-74
2022/04/30 05:12:01;;;;;;;;;;;16.10;45.70;;;;;;2376862;53;20105;-76
2022/04/30 05:14:28;;;;;;;;;;;16.10;45.70;;;;;;2397097;52;20054;-72
2022/04/30 05:16:55;;;;;;;;;;;16.10;45.80;;;;;;2376247;53;20139;-73
2022/04/30 05:19:22;;;;;;;;;;;16.10;45.90;;;;;;2362059;53;20081;-74
2022/04/30 05:21:49;;;;;;;;;;;16.10;46.00;;;;;;2377646;54;20081;-72
2022/04/30 05:24:15;;;;;;;;;;;16.10;46.00;;;;;;2380320;53;20130;-74
2022/04/30 05:26:42;;;;;;;;;;;16.00;45.90;;;;;;2631131;52;20073;-76
2022/04/30 05:29:08;;;;;;;;;;;16.10;46.10;;;;;;2377609;53;20062;-76
2022/04/30 05:31:35;;;;;;;;;;;16.10;46.10;;;;;;2377618;53;20062;-75
2022/04/30 05:34:01;;;;;;;;;;;16.10;46.10;;;;;;2377457;54;20050;-74
2022/04/30 05:36:27;;;;;;;;;;;16.10;46.20;;;;;;2377802;53;20125;-76
2022/04/30 05:38:53;;;;;;;;;;;16.10;46.30;;;;;;2377405;53;20114;-73
2022/04/30 05:41:19;;;;;;;;;;;16.10;46.30;;;;;;2482663;52;20374;-74
2022/04/30 05:43:48;;;;;;;;;;;16.10;46.30;;;;;;2381160;53;20073;-74
2022/04/30 05:46:14;;;;;;;;;;;16.10;46.30;;;;;;2494785;52;20414;-74
2022/04/30 05:48:40;;;;;;;;;;;16.10;46.30;;;;;;2379755;53;20214;-73
2022/04/30 05:51:06;;;;;;;;;;;16.10;46.30;;;;;;2377036;53;20122;-73
2022/04/30 05:53:33;;;;;;;;;;;16.10;46.40;;;;;;2451122;52;20130;-73
2022/04/30 05:55:59;;;;;;;;;;;16.20;46.50;;;;;;2376883;54;20061;-74
2022/04/30 05:58:25;;;;;;;;;;;16.20;46.60;;;;;;2481771;52;20679;-73
2022/04/30 06:00:51;;;;;;;;;;;16.20;46.60;;;;;;2375742;53;20655;-74
2022/04/30 06:03:17;;;;;;;;;;;16.20;46.60;;;;;;2376313;54;20142;-77
2022/04/30 06:05:44;;;;;;;;;;;16.30;46.70;;;;;;2631371;52;20129;-77
2022/04/30 06:08:13;;;;;;;;;;;16.30;46.60;;;;;;2379227;53;20082;-76
2022/04/30 06:10:39;;;;;;;;;;;16.30;46.60;;;;;;2376405;53;20070;-75
2022/04/30 06:13:06;;;;;;;;;;;16.30;46.60;;;;;;2428347;52;20342;-77
2022/04/30 06:15:32;;;;;;;;;;;16.30;46.60;;;;;;2402093;52;20066;-73
2022/04/30 06:17:58;;;;;;;;;;;16.30;46.60;;;;;;2376938;53;20045;-74
2022/04/30 06:20:24;;;;;;;;;;;16.30;46.70;;;;;;2377014;53;20113;-74
2022/04/30 06:22:51;;;;;;;;;;;16.30;46.70;;;;;;2435694;52;20755;-73
2022/04/30 06:25:19;;;;;;;;;;;16.30;46.70;;;;;;2492450;52;20584;-72
2022/04/30 06:27:45;;;;;;;;;;;16.40;46.80;;;;;;2376368;53;20065;-76
2022/04/30 06:30:13;;;;;;;;;;;16.40;46.80;;;;;;2376575;53;20070;-73
2022/04/30 06:32:41;;;;;;;;;;;16.40;46.70;;;;;;2629720;52;20062;-75
2022/04/30 06:35:09;;;;;;;;;;;16.40;46.60;;;;;;2376253;53;20090;-74
2022/04/30 06:37:35;;;;;;;;;;;16.40;46.70;;;;;;2519809;52;20105;-76
2022/04/30 06:40:01;;;;;;;;;;;16.40;46.80;;;;;;2512042;52;20105;-74
2022/04/30 06:42:27;;;;;;;;;;;16.40;46.80;;;;;;2380558;53;20145;-72
2022/04/30 06:44:54;;;;;;;;;;;16.40;47.30;;;;;;2393406;52;20117;-72
2022/04/30 06:47:21;;;;;;;;;;;16.50;47.00;;;;;;2376479;53;20608;-75
2022/04/30 06:49:50;;;;;;;;;;;16.50;47.10;;;;;;2377225;53;20064;-74
2022/04/30 06:52:19;;;;;;;;;;;16.50;47.00;;;;;;2379501;52;20110;-73
2022/04/30 06:57:30;;;;;;;;;;;16.60;47.00;;;;;;2376932;53;20065;-74
2022/04/30 06:59:57;;;;;;;;;;;16.60;47.10;;;;;;2471533;52;20310;-75
2022/04/30 07:02:25;;;;;;;;;;;16.70;47.10;;;;;;2376795;54;20109;-74
2022/04/30 07:04:54;;;;;;;;;;;16.70;46.90;;;;;;2424762;52;20327;-75
2022/04/30 07:07:20;;;;;;;;;;;16.70;47.00;;;;;;2378311;53;20050;-74
2022/04/30 07:09:46;;;;;;;;;;;16.70;46.80;;;;;;2551541;52;20070;-77
2022/04/30 07:12:14;;;;;;;;;;;16.70;46.90;;;;;;2497738;52;20133;-73
2022/04/30 07:14:44;;;;;;;;;;;16.70;46.90;;;;;;2501409;52;20570;-74
2022/04/30 07:17:14;;;;;;;;;;;16.70;46.90;;;;;;2376219;53;20114;-74
2022/04/30 07:19:40;;;;;;;;;;;16.70;46.90;;;;;;2376997;53;20133;-74
2022/04/30 07:22:09;;;;;;;;;;;16.80;47.10;;;;;;2376128;54;20126;-74
2022/04/30 07:24:43;;;;;;;;;;;16.80;47.20;;;;;;2444280;52;20097;-74
2022/04/30 07:27:10;;;;;;;;;;;16.80;47.20;;;;;;2378284;53;20182;-76
2022/04/30 07:29:38;;;;;;;;;;;16.80;47.00;;;;;;2379707;53;20203;-73
2022/04/30 07:32:08;;;;;;;;;;;16.80;47.20;;;;;;2376236;53;20062;-73
2022/04/30 07:34:36;;;;;;;;;;;16.80;47.20;;;;;;2378795;52;20089;-71
2022/04/30 07:37:04;;;;;;;;;;;16.90;47.30;;;;;;2376790;54;20087;-74
2022/04/30 07:39:30;;;;;;;;;;;16.90;47.20;;;;;;2416810;52;20078;-76
2022/04/30 07:41:59;;;;;;;;;;;16.90;47.10;;;;;;2376587;54;20751;-73
2022/04/30 07:44:29;;;;;;;;;;;16.90;47.10;;;;;;2379084;53;20089;-74
2022/04/30 07:46:56;;;;;;;;;;;16.90;47.10;;;;;;2508243;53;20126;-77
2022/04/30 07:49:23;;;;;;;;;;;16.90;47.20;;;;;;2381973;52;20093;-74
2022/04/30 07:51:57;;;;;;;;;;;17.00;47.30;;;;;;2378210;53;20134;-73
2022/04/30 07:54:24;;;;;;;;;;;16.90;47.20;;;;;;2377798;53;20296;-73
2022/04/30 07:56:56;;;;;;;;;;;17.00;47.40;;;;;;2358519;53;20087;-73
2022/04/30 07:59:22;;;;;;;;;;;17.00;47.50;;;;;;2379859;53;20286;-72
2022/04/30 08:01:49;;;;;;;;;;;17.10;47.60;;;;;;2372954;53;20067;-73
2022/04/30 08:04:15;;;;;;;;;;;17.10;47.60;;;;;;2375108;53;20093;-73
2022/04/30 08:06:42;;;;;;;;;;;17.10;47.60;;;;;;2517601;52;20101;-74
2022/04/30 08:09:09;;;;;;;;;;;17.10;47.60;;;;;;2378518;53;20454;-73
2022/04/30 08:11:35;;;;;;;;;;;17.20;47.70;;;;;;2376523;53;20081;-73
2022/04/30 08:14:02;;;;;;;;;;;17.20;47.70;;;;;;2376582;53;20061;-74
2022/04/30 08:16:29;;;;;;;;;;;17.30;47.80;;;;;;2398551;52;20094;-74
2022/04/30 08:18:56;;;;;;;;;;;17.30;47.80;;;;;;2376721;53;20114;-73
2022/04/30 08:21:23;;;;;;;;;;;17.40;47.80;;;;;;2376611;53;20078;-74
2022/04/30 08:23:50;;;;;;;;;;;17.40;47.70;;;;;;2376557;54;20070;-73
2022/04/30 08:26:17;;;;;;;;;;;17.50;47.90;;;;;;2419117;52;20125;-73
2022/04/30 08:28:43;;;;;;;;;;;17.50;48.00;;;;;;2376834;54;20322;-72
2022/04/30 08:31:10;;;;;;;;;;;17.60;48.10;;;;;;2376683;53;20065;-73
2022/04/30 08:33:37;;;;;;;;;;;17.70;48.20;;;;;;2376540;53;20728;-73
2022/04/30 08:36:04;;;;;;;;;;;17.70;48.00;;;;;;2380160;53;20089;-76
2022/04/30 08:38:31;;;;;;;;;;;17.80;48.10;;;;;;2379019;52;20503;-73
2022/04/30 08:40:57;;;;;;;;;;;17.80;47.90;;;;;;2559699;52;20522;-75
2022/04/30 08:43:23;;;;;;;;;;;17.90;47.80;;;;;;2377264;53;20101;-74
2022/04/30 08:45:50;;;;;;;;;;;17.90;47.70;;;;;;2422059;52;20073;-73
2022/04/30 08:48:16;;;;;;;;;;;18.00;47.90;;;;;;2630530;52;20144;-74
2022/04/30 08:50:44;;;;;;;;;;;18.00;47.90;;;;;;2376975;53;20122;-75
2022/04/30 08:53:10;;;;;;;;;;;18.00;47.80;;;;;;2377451;53;20250;-74
2022/04/30 08:55:37;;;;;;;;;;;18.10;47.80;;;;;;2376920;53;20106;-74
2022/04/30 08:58:05;;;;;;;;;;;18.10;47.70;;;;;;2419490;52;20085;-73
2022/04/30 09:00:37;;;;;;;;;;;18.20;47.70;;;;;;2518086;52;20150;-76
2022/04/30 09:03:04;;;;;;;;;;;18.20;47.70;;;;;;2379555;53;20069;-76
2022/04/30 09:05:31;;;;;;;;;;;18.30;47.70;;;;;;2400077;52;20113;-76
2022/04/30 09:07:58;;;;;;;;;;;18.30;47.70;;;;;;2376898;54;20074;-73
2022/04/30 09:10:24;;;;;;;;;;;18.40;48.30;;;;;;2376856;53;20077;-72
2022/04/30 09:12:51;;;;;;;;;;;18.40;47.60;;;;;;2376595;53;20133;-74
2022/04/30 09:15:18;;;;;;;;;;;18.40;47.80;;;;;;2383301;52;20070;-74
2022/04/30 09:17:58;;;;;;;;;;;18.50;48.00;;;;;;2540684;52;20053;-73
2022/04/30 09:20:24;;;;;;;;;;;18.50;48.00;;;;;;2361717;53;20168;-74
2022/04/30 09:22:53;;;;;;;;;;;18.60;48.10;;;;;;2526381;52;20045;-71
2022/04/30 09:25:21;;;;;;;;;;;18.70;48.20;;;;;;2614584;52;20062;-73
2022/04/30 09:28:03;;;;;;;;;;;18.80;48.40;;;;;;2378548;53;20062;-71
2022/04/30 09:30:29;;;;;;;;;;;18.90;48.60;;;;;;2379856;53;20078;-74
2022/04/30 09:32:59;;;;;;;;;;;19.00;48.70;;;;;;2453086;52;20058;-75
2022/04/30 09:38:09;;;;;;;;;;;19.30;48.40;;;;;;2384906;52;20280;-73
2022/04/30 09:40:35;;;;;;;;;;;19.40;48.20;;;;;;2376696;53;20061;-72
2022/04/30 09:43:02;;;;;;;;;;;19.50;48.10;;;;;;2377033;53;20137;-73
2022/04/30 09:45:29;;;;;;;;;;;19.60;48.10;;;;;;2419148;52;20061;-74
2022/04/30 09:47:56;;;;;;;;;;;19.60;47.80;;;;;;2528612;52;20110;-71
2022/04/30 09:55:53;;;;;;;;;;;19.60;47.10;;;;;;2379860;53;20338;-73
2022/04/30 09:58:25;;;;;;;;;;;19.60;47.00;;;;;;2385392;52;20134;-73
2022/04/30 10:00:56;;;;;;;;;;;19.50;46.80;;;;;;2377148;53;20114;-73
2022/04/30 10:03:24;;;;;;;;;;;19.50;47.10;;;;;;2376989;54;20137;-74
2022/04/30 10:05:51;;;;;;;;;;;19.50;47.40;;;;;;2378646;52;20073;-73
2022/04/30 10:08:19;;;;;;;;;;;19.50;47.70;;;;;;2379872;53;20066;-73
2022/04/30 10:10:50;;;;;;;;;;;19.60;48.00;;;;;;2362363;53;20146;-71
2022/04/30 10:13:20;;;;;;;;;;;19.70;48.10;;;;;;2380899;53;20082;-73
2022/04/30 10:15:50;;;;;;;;;;;19.90;48.00;;;;;;2481203;52;20046;-71
2022/04/30 10:18:18;;;;;;;;;;;19.90;48.10;;;;;;2377848;53;20066;-71
2022/04/30 10:20:49;;;;;;;;;;;20.00;48.00;;;;;;2376771;54;20077;-71
2022/04/30 10:23:15;;;;;;;;;;;20.20;48.40;;;;;;2377619;53;20161;-73
2022/04/30 10:25:48;;;;;;;;;;;20.30;48.20;;;;;;2450943;52;20412;-72
2022/04/30 10:28:23;;;;;;;;;;;20.40;48.10;;;;;;2380354;53;20113;-74
2022/04/30 10:30:58;;;;;;;;;;;20.50;47.90;;;;;;2376559;53;20355;-74
2022/04/30 10:33:25;;;;;;;;;;;20.60;48.10;;;;;;2372267;53;20069;-75
2022/04/30 10:36:01;;;;;;;;;;;20.70;48.20;;;;;;2379573;53;20121;-73
2022/04/30 10:38:28;;;;;;;;;;;20.90;48.30;;;;;;2456704;52;20170;-74
2022/04/30 10:40:57;;;;;;;;;;;21.00;48.10;;;;;;2376676;54;20066;-74
2022/04/30 10:43:31;;;;;;;;;;;21.20;48.00;;;;;;2405985;52;20116;-71
2022/04/30 10:45:58;;;;;;;;;;;21.20;47.60;;;;;;2576117;52;20073;-72
2022/04/30 10:48:25;;;;;;;;;;;21.30;47.20;;;;;;2376882;54;20129;-73
2022/04/30 10:51:03;;;;;;;;;;;21.20;46.80;;;;;;2376839;53;20133;-73
2022/04/30 10:53:32;;;;;;;;;;;21.20;46.60;;;;;;2498651;52;20077;-73
2022/04/30 10:55:59;;;;;;;;;;;21.20;46.50;;;;;;2376702;54;20114;-73
2022/04/30 10:58:25;;;;;;;;;;;21.10;46.60;;;;;;2405232;52;20078;-71
2022/04/30 11:00:51;;;;;;;;;;;21.20;47.00;;;;;;2379865;53;20837;-71
2022/04/30 11:03:24;;;;;;;;;;;21.20;47.10;;;;;;2376570;53;20113;-75
2022/04/30 11:05:50;;;;;;;;;;;21.30;47.50;;;;;;2472022;52;20050;-73
2022/04/30 11:08:17;;;;;;;;;;;21.30;47.40;;;;;;2370190;53;20053;-73
2022/04/30 11:10:52;;;;;;;;;;;21.40;47.10;;;;;;2376410;53;20065;-74
2022/04/30 11:13:23;;;;;;;;;;;21.40;46.70;;;;;;2377249;54;20065;-71
2022/04/30 11:15:49;;;;;;;;;;;21.50;46.60;;;;;;2376587;53;20058;-72
2022/04/30 11:18:18;;;;;;;;;;;21.50;46.60;;;;;;2630614;52;20360;-72
2022/04/30 11:20:45;;;;;;;;;;;21.50;46.40;;;;;;2377282;53;20572;-72
2022/04/30 11:23:19;;;;;;;;;;;21.50;46.00;;;;;;2489873;52;20137;-73
2022/04/30 11:25:46;;;;;;;;;;;21.40;45.90;;;;;;2379511;52;20132;-73
2022/04/30 11:28:12;;;;;;;;;;;21.40;46.00;;;;;;2380173;53;20081;-72
2022/04/30 11:30:40;;;;;;;;;;;21.40;46.00;;;;;;2404718;52;20129;-71
2022/04/30 11:33:06;;;;;;;;;;;21.30;46.10;;;;;;2379368;53;20057;-72
2022/04/30 11:35:32;;;;;;;;;;;21.40;46.20;;;;;;2376151;53;20436;-73
2022/04/30 11:37:58;;;;;;;;;;;21.40;46.20;;;;;;2463233;52;20136;-73
2022/04/30 11:40:26;;;;;;;;;;;21.40;46.30;;;;;;2377361;53;20117;-72
2022/04/30 11:42:58;;;;;;;;;;;21.40;46.20;;;;;;2424048;52;20089;-75
2022/04/30 11:45:31;;;;;;;;;;;21.50;46.40;;;;;;2381247;53;20138;-70
2022/04/30 11:47:57;;;;;;;;;;;21.50;46.40;;;;;;2380183;53;20113;-67
2022/04/30 11:50:24;;;;;;;;;;;21.50;46.50;;;;;;2376900;53;20129;-72
2022/04/30 11:52:51;;;;;;;;;;;21.60;46.50;;;;;;2383131;52;20058;-67
2022/04/30 11:55:17;;;;;;;;;;;21.70;46.40;;;;;;2376956;53;20318;-69
2022/04/30 11:57:43;;;;;;;;;;;21.70;46.20;;;;;;2378468;53;20653;-70
2022/04/30 12:00:11;;;;;;;;;;;21.80;46.30;;;;;;2376434;53;20117;-69
2022/04/30 12:02:39;;;;;;;;;;;21.80;46.40;;;;;;2376388;53;20054;-71
2022/04/30 12:05:07;;;;;;;;;;;21.90;46.30;;;;;;2472445;52;20130;-71
2022/04/30 12:07:36;;;;;;;;;;;22.00;46.30;;;;;;2377058;54;20085;-71
2022/04/30 12:10:03;;;;;;;;;;;22.00;46.20;;;;;;2376917;54;20109;-70
2022/04/30 12:12:29;;;;;;;;;;;22.10;46.20;;;;;;2377229;53;20117;-70
2022/04/30 12:14:56;;;;;;;;;;;22.10;45.90;;;;;;2376242;54;20148;-71
2022/04/30 12:17:32;;;;;;;;;;;22.10;45.60;;;;;;2390542;52;20069;-71
2022/04/30 12:25:32;;;;;;;;;;;22.10;46.00;;;;;;2377273;53;20078;-70
2022/04/30 12:27:59;;;;;;;;;;;22.10;45.40;;;;;;2626601;52;20105;-71
2022/04/30 12:30:53;;;;;;;;;;;22.20;45.70;;;;;;2376189;53;20157;-70
2022/04/30 12:33:19;;;;;;;;;;;22.30;45.80;;;;;;2458428;52;20327;-70
2022/04/30 12:35:52;;;;;;;;;;;22.30;45.70;;;;;;2376951;54;20203;-72
2022/04/30 12:38:18;;;;;;;;;;;22.30;45.70;;;;;;2521721;52;20081;-71
2022/04/30 12:40:45;;;;;;;;;;;22.40;45.60;;;;;;2408939;53;20330;-72
2022/04/30 12:43:11;;;;;;;;;;;22.40;45.50;;;;;;2456188;52;20319;-72
2022/04/30 12:45:37;;;;;;;;;;;22.50;45.70;;;;;;2486132;52;20611;-69
2022/04/30 12:48:04;;;;;;;;;;;22.50;45.70;;;;;;2383595;53;20113;-71
2022/04/30 12:50:35;;;;;;;;;;;22.60;45.90;;;;;;2378967;53;20090;-70
2022/04/30 12:53:02;;;;;;;;;;;22.70;45.70;;;;;;2376884;54;20062;-71
2022/04/30 12:55:31;;;;;;;;;;;22.80;45.70;;;;;;2630408;52;20966;-69
2022/04/30 12:57:57;;;;;;;;;;;22.90;45.90;;;;;;2481082;52;20085;-69
2022/04/30 13:00:25;;;;;;;;;;;22.90;45.60;;;;;;2376773;53;20073;-70
2022/04/30 13:02:51;;;;;;;;;;;23.00;45.40;;;;;;2381960;53;20113;-72
2022/04/30 13:05:17;;;;;;;;;;;23.00;45.10;;;;;;2453211;53;20082;-69
2022/04/30 13:07:44;;;;;;;;;;;23.00;45.10;;;;;;2376901;53;20117;-71
2022/04/30 13:15:39;;;;;;;;;;;22.90;44.60;;;;;;2376439;53;20448;-68
2022/04/30 13:18:06;;;;;;;;;;;22.90;44.60;;;;;;2629364;52;20065;-71
2022/04/30 13:20:33;;;;;;;;;;;22.90;44.60;;;;;;2380265;53;20082;-71
2022/04/30 13:22:59;;;;;;;;;;;22.90;44.50;;;;;;2376261;53;20094;-69
2022/04/30 13:25:26;;;;;;;;;;;22.90;44.30;;;;;;2447802;52;20065;-69
2022/04/30 13:27:55;;;;;;;;;;;22.80;44.20;;;;;;2376830;54;20066;-68
2022/04/30 13:30:24;;;;;;;;;;;22.80;44.00;;;;;;2375569;53;20070;-72
2022/04/30 13:32:51;;;;;;;;;;;22.70;43.90;;;;;;2379868;53;20121;-73
2022/04/30 13:35:17;;;;;;;;;;;22.70;44.00;;;;;;2380960;53;20699;-70
2022/04/30 13:37:51;;;;;;;;;;;22.60;44.00;;;;;;2357121;53;20137;-71
2022/04/30 13:40:17;;;;;;;;;;;22.60;44.00;;;;;;2376869;53;20117;-71
2022/04/30 13:42:46;;;;;;;;;;;22.60;44.00;;;;;;2492059;52;20073;-70
2022/04/30 13:45:13;;;;;;;;;;;22.60;44.00;;;;;;2577608;52;20453;-68
2022/04/30 13:47:40;;;;;;;;;;;22.50;43.80;;;;;;2378265;53;20118;-72
2022/04/30 13:50:06;;;;;;;;;;;22.50;43.70;;;;;;2380353;53;20122;-72
2022/04/30 13:52:45;;;;;;;;;;;22.40;43.70;;;;;;2617047;52;20350;-69
2022/04/30 13:55:12;;;;;;;;;;;22.40;43.80;;;;;;2364266;53;20178;-72
2022/04/30 13:57:41;;;;;;;;;;;22.30;44.20;;;;;;2504435;52;20130;-70
2022/04/30 14:00:10;;;;;;;;;;;22.30;43.80;;;;;;2370982;53;20133;-70
2022/04/30 14:02:38;;;;;;;;;;;22.30;44.00;;;;;;2402910;52;20089;-71
2022/04/30 14:05:05;;;;;;;;;;;22.30;44.30;;;;;;2605728;52;20066;-71
2022/04/30 14:07:32;;;;;;;;;;;22.30;44.30;;;;;;2377096;53;20109;-71
2022/04/30 14:09:58;;;;;;;;;;;22.40;44.20;;;;;;2376947;53;20435;-69
2022/04/30 14:12:39;;;;;;;;;;;22.40;44.00;;;;;;2428025;52;20097;-73
2022/04/30 14:15:06;;;;;;;;;;;22.40;43.90;;;;;;2376038;53;20053;-73
2022/04/30 14:20:17;;;;;;;;;;;22.40;43.90;;;;;;2378891;53;20109;-74
2022/04/30 14:22:47;;;;;;;;;;;22.40;44.80;;;;;;2388806;52;20381;-75
2022/04/30 14:25:14;;;;;;;;;;;22.50;43.90;;;;;;2377562;54;20110;-74
2022/04/30 14:27:41;;;;;;;;;;;22.40;43.40;;;;;;2379536;53;20066;-74
2022/04/30 14:30:07;;;;;;;;;;;22.40;43.50;;;;;;2628078;52;20064;-72
2022/04/30 14:32:34;;;;;;;;;;;22.40;43.60;;;;;;2376254;53;20282;-72
2022/04/30 14:35:04;;;;;;;;;;;22.40;43.40;;;;;;2380584;53;20089;-73
2022/04/30 14:37:30;;;;;;;;;;;22.40;43.20;;;;;;2377714;54;20061;-73
2022/04/30 14:39:57;;;;;;;;;;;22.30;43.00;;;;;;2388075;52;20079;-74
2022/04/30 14:42:25;;;;;;;;;;;22.30;43.10;;;;;;2380882;53;20233;-74
2022/04/30 14:44:51;;;;;;;;;;;22.20;43.00;;;;;;2376415;53;20082;-70
2022/04/30 14:47:18;;;;;;;;;;;22.10;42.90;;;;;;2390026;52;20104;-76
2022/04/30 14:49:59;;;;;;;;;;;22.00;42.90;;;;;;2376963;53;20085;-72
2022/04/30 14:52:26;;;;;;;;;;;22.00;42.80;;;;;;2376972;53;20090;-72
2022/04/30 14:54:53;;;;;;;;;;;21.90;42.70;;;;;;2376314;54;20081;-72
2022/04/30 14:57:19;;;;;;;;;;;21.80;42.70;;;;;;2380603;53;20134;-72
2022/04/30 14:59:48;;;;;;;;;;;21.80;42.80;;;;;;2392969;52;20122;-71
2022/04/30 15:02:14;;;;;;;;;;;21.70;42.90;;;;;;2376862;54;20070;-73
2022/04/30 15:04:40;;;;;;;;;;;21.70;42.90;;;;;;2533373;52;20101;-73
2022/04/30 15:07:06;;;;;;;;;;;21.70;42.80;;;;;;2376420;54;20377;-71
2022/04/30 15:09:32;;;;;;;;;;;21.60;42.70;;;;;;2376417;54;20401;-72